sensor_id;sensor_type;location;lat;lon;timestamp;P1;durP1;ratioP1;P2;durP2;ratioP2
14268;SDS011;7218;51.480;7.006;2023-05-15T00:01:47;17.95;;;13.52;;
14268;SDS011;7218;51.480;7.006;2023-05-15T00:04:14;16.60;;;13.80;;
14268;SDS011;7218;51.480;7.006;2023-05-15T00:06:40;15.35;;;13.48;;
14268;SDS011;7218;51.480;7.006;2023-05-15T00:09:07;17.52;;;14.60;;
14268;SDS011;7218;51.480;7.006;2023-05-15T00:11:34;22.98;;;14.30;;
14268;SDS011;7218;51.480;7.006;2023-05-15T00:14:02;15.95;;;13.88;;
14268;SDS011;7218;51.480;7.006;2023-05-15T00:16:29;16.40;;;13.80;;
14268;SDS011;7218;51.480;7.006;2023-05-15T00:18:55;21.00;;;15.38;;
14268;SDS011;7218;51.480;7.006;2023-05-15T00:21:22;16.33;;;14.30;;
14268;SDS011;7218;51.480;7.006;2023-05-15T00:23:48;19.58;;;14.95;;
14268;SDS011;7218;51.480;7.006;2023-05-15T00:26:17;20.55;;;15.93;;
14268;SDS011;7218;51.480;7.006;2023-05-15T00:28:44;18.88;;;15.63;;
14268;SDS011;7218;51.480;7.006;2023-05-15T00:31:12;22.92;;;15.43;;
14268;SDS011;7218;51.480;7.006;2023-05-15T00:33:39;21.92;;;16.33;;
14268;SDS011;7218;51.480;7.006;2023-05-15T00:36:05;20.92;;;16.35;;
14268;SDS011;7218;51.480;7.006;2023-05-15T00:38:32;24.08;;;17.20;;
14268;SDS011;7218;51.480;7.006;2023-05-15T00:40:59;19.75;;;16.38;;
14268;SDS011;7218;51.480;7.006;2023-05-15T00:43:26;20.13;;;16.48;;
14268;SDS011;7218;51.480;7.006;2023-05-15T00:45:53;21.50;;;16.35;;
14268;SDS011;7218;51.480;7.006;2023-05-15T00:48:23;19.95;;;16.40;;
14268;SDS011;7218;51.480;7.006;2023-05-15T00:50:51;24.90;;;16.85;;
14268;SDS011;7218;51.480;7.006;2023-05-15T00:53:18;21.15;;;17.75;;
14268;SDS011;7218;51.480;7.006;2023-05-15T00:55:44;21.33;;;17.77;;
14268;SDS011;7218;51.480;7.006;2023-05-15T00:58:12;21.73;;;16.77;;
14268;SDS011;7218;51.480;7.006;2023-05-15T01:00:40;22.40;;;18.35;;
14268;SDS011;7218;51.480;7.006;2023-05-15T01:03:08;20.95;;;17.85;;
14268;SDS011;7218;51.480;7.006;2023-05-15T01:05:36;25.50;;;18.58;;
14268;SDS011;7218;51.480;7.006;2023-05-15T01:08:05;21.55;;;18.80;;
14268;SDS011;7218;51.480;7.006;2023-05-15T01:10:35;27.95;;;20.60;;
14268;SDS011;7218;51.480;7.006;2023-05-15T01:13:02;25.85;;;20.33;;
14268;SDS011;7218;51.480;7.006;2023-05-15T01:15:30;26.48;;;21.65;;
14268;SDS011;7218;51.480;7.006;2023-05-15T01:17:57;25.40;;;21.75;;
14268;SDS011;7218;51.480;7.006;2023-05-15T01:20:24;27.40;;;22.63;;
14268;SDS011;7218;51.480;7.006;2023-05-15T01:23:02;28.88;;;21.50;;
14268;SDS011;7218;51.480;7.006;2023-05-15T01:25:53;28.58;;;20.95;;
14268;SDS011;7218;51.480;7.006;2023-05-15T01:28:36;24.33;;;20.67;;
14268;SDS011;7218;51.480;7.006;2023-05-15T01:31:08;26.63;;;20.88;;
14268;SDS011;7218;51.480;7.006;2023-05-15T01:33:39;29.10;;;20.63;;
14268;SDS011;7218;51.480;7.006;2023-05-15T01:36:11;26.92;;;21.00;;
14268;SDS011;7218;51.480;7.006;2023-05-15T01:38:41;29.20;;;22.17;;
14268;SDS011;7218;51.480;7.006;2023-05-15T01:41:14;26.33;;;20.90;;
14268;SDS011;7218;51.480;7.006;2023-05-15T01:43:47;29.05;;;21.92;;
14268;SDS011;7218;51.480;7.006;2023-05-15T01:46:19;31.40;;;22.13;;
14268;SDS011;7218;51.480;7.006;2023-05-15T01:48:48;28.90;;;23.33;;
14268;SDS011;7218;51.480;7.006;2023-05-15T01:51:15;29.48;;;22.70;;
14268;SDS011;7218;51.480;7.006;2023-05-15T01:53:44;34.17;;;23.77;;
14268;SDS011;7218;51.480;7.006;2023-05-15T01:56:12;29.95;;;22.80;;
14268;SDS011;7218;51.480;7.006;2023-05-15T01:58:40;31.55;;;23.65;;
14268;SDS011;7218;51.480;7.006;2023-05-15T02:01:10;29.20;;;22.80;;
14268;SDS011;7218;51.480;7.006;2023-05-15T02:03:37;29.33;;;23.02;;
14268;SDS011;7218;51.480;7.006;2023-05-15T02:06:06;28.10;;;24.08;;
14268;SDS011;7218;51.480;7.006;2023-05-15T02:08:33;30.98;;;23.60;;
14268;SDS011;7218;51.480;7.006;2023-05-15T02:11:00;46.40;;;30.50;;
14268;SDS011;7218;51.480;7.006;2023-05-15T02:13:28;55.10;;;33.90;;
14268;SDS011;7218;51.480;7.006;2023-05-15T02:15:56;47.35;;;30.55;;
14268;SDS011;7218;51.480;7.006;2023-05-15T02:18:24;44.17;;;29.30;;
14268;SDS011;7218;51.480;7.006;2023-05-15T02:20:52;37.95;;;27.67;;
14268;SDS011;7218;51.480;7.006;2023-05-15T02:23:18;37.75;;;26.70;;
14268;SDS011;7218;51.480;7.006;2023-05-15T02:25:47;29.70;;;23.45;;
14268;SDS011;7218;51.480;7.006;2023-05-15T02:28:21;33.75;;;26.73;;
14268;SDS011;7218;51.480;7.006;2023-05-15T02:30:53;36.88;;;27.65;;
14268;SDS011;7218;51.480;7.006;2023-05-15T02:33:25;36.95;;;26.73;;
14268;SDS011;7218;51.480;7.006;2023-05-15T02:35:57;38.45;;;28.20;;
14268;SDS011;7218;51.480;7.006;2023-05-15T02:38:28;38.33;;;27.90;;
14268;SDS011;7218;51.480;7.006;2023-05-15T02:40:58;43.47;;;29.48;;
14268;SDS011;7218;51.480;7.006;2023-05-15T02:43:26;35.55;;;27.60;;
14268;SDS011;7218;51.480;7.006;2023-05-15T02:45:55;35.50;;;27.10;;
14268;SDS011;7218;51.480;7.006;2023-05-15T02:48:23;37.63;;;27.52;;
14268;SDS011;7218;51.480;7.006;2023-05-15T02:50:51;33.45;;;26.27;;
14268;SDS011;7218;51.480;7.006;2023-05-15T02:53:17;39.22;;;26.95;;
14268;SDS011;7218;51.480;7.006;2023-05-15T02:55:44;37.92;;;27.40;;
14268;SDS011;7218;51.480;7.006;2023-05-15T02:58:10;39.50;;;27.33;;
14268;SDS011;7218;51.480;7.006;2023-05-15T03:00:37;35.90;;;28.52;;
14268;SDS011;7218;51.480;7.006;2023-05-15T03:03:03;38.22;;;28.33;;
14268;SDS011;7218;51.480;7.006;2023-05-15T03:05:31;37.80;;;28.48;;
14268;SDS011;7218;51.480;7.006;2023-05-15T03:07:58;37.55;;;28.52;;
14268;SDS011;7218;51.480;7.006;2023-05-15T03:10:25;39.25;;;29.20;;
14268;SDS011;7218;51.480;7.006;2023-05-15T03:12:51;44.03;;;29.92;;
14268;SDS011;7218;51.480;7.006;2023-05-15T03:15:18;48.00;;;32.72;;
14268;SDS011;7218;51.480;7.006;2023-05-15T03:17:45;48.70;;;32.00;;
14268;SDS011;7218;51.480;7.006;2023-05-15T03:20:11;51.50;;;31.65;;
14268;SDS011;7218;51.480;7.006;2023-05-15T03:22:40;43.53;;;29.77;;
14268;SDS011;7218;51.480;7.006;2023-05-15T03:25:08;38.50;;;28.63;;
14268;SDS011;7218;51.480;7.006;2023-05-15T03:27:35;43.08;;;29.77;;
14268;SDS011;7218;51.480;7.006;2023-05-15T03:30:02;39.67;;;28.55;;
14268;SDS011;7218;51.480;7.006;2023-05-15T03:32:29;39.67;;;28.42;;
14268;SDS011;7218;51.480;7.006;2023-05-15T03:34:56;41.75;;;29.10;;
14268;SDS011;7218;51.480;7.006;2023-05-15T03:37:22;43.78;;;28.52;;
14268;SDS011;7218;51.480;7.006;2023-05-15T03:39:50;40.25;;;27.80;;
14268;SDS011;7218;51.480;7.006;2023-05-15T03:42:17;36.05;;;26.48;;
14268;SDS011;7218;51.480;7.006;2023-05-15T03:44:47;30.95;;;24.38;;
14268;SDS011;7218;51.480;7.006;2023-05-15T03:47:13;34.83;;;25.17;;
14268;SDS011;7218;51.480;7.006;2023-05-15T03:49:40;33.83;;;25.38;;
14268;SDS011;7218;51.480;7.006;2023-05-15T03:52:06;31.65;;;24.23;;
14268;SDS011;7218;51.480;7.006;2023-05-15T03:54:33;31.20;;;24.30;;
14268;SDS011;7218;51.480;7.006;2023-05-15T03:57:02;29.75;;;24.38;;
14268;SDS011;7218;51.480;7.006;2023-05-15T03:59:28;32.05;;;24.17;;
14268;SDS011;7218;51.480;7.006;2023-05-15T04:01:55;34.00;;;24.42;;
14268;SDS011;7218;51.480;7.006;2023-05-15T04:04:21;30.67;;;24.85;;
14268;SDS011;7218;51.480;7.006;2023-05-15T04:06:48;30.08;;;24.63;;
14268;SDS011;7218;51.480;7.006;2023-05-15T04:09:15;32.38;;;24.73;;
14268;SDS011;7218;51.480;7.006;2023-05-15T04:11:41;32.17;;;24.30;;
14268;SDS011;7218;51.480;7.006;2023-05-15T04:14:12;32.28;;;24.48;;
14268;SDS011;7218;51.480;7.006;2023-05-15T04:16:38;29.70;;;23.58;;
14268;SDS011;7218;51.480;7.006;2023-05-15T04:19:05;34.08;;;26.15;;
14268;SDS011;7218;51.480;7.006;2023-05-15T04:21:31;33.92;;;25.63;;
14268;SDS011;7218;51.480;7.006;2023-05-15T04:23:57;33.90;;;25.50;;
14268;SDS011;7218;51.480;7.006;2023-05-15T04:26:24;31.83;;;24.90;;
14268;SDS011;7218;51.480;7.006;2023-05-15T04:28:50;34.33;;;26.25;;
14268;SDS011;7218;51.480;7.006;2023-05-15T04:31:18;34.95;;;26.42;;
14268;SDS011;7218;51.480;7.006;2023-05-15T04:33:45;31.85;;;25.48;;
14268;SDS011;7218;51.480;7.006;2023-05-15T04:36:11;34.75;;;26.48;;
14268;SDS011;7218;51.480;7.006;2023-05-15T04:38:38;33.42;;;26.67;;
14268;SDS011;7218;51.480;7.006;2023-05-15T04:41:05;33.95;;;26.40;;
14268;SDS011;7218;51.480;7.006;2023-05-15T04:43:31;37.22;;;28.15;;
14268;SDS011;7218;51.480;7.006;2023-05-15T04:45:58;37.28;;;28.45;;
14268;SDS011;7218;51.480;7.006;2023-05-15T04:48:25;35.08;;;28.38;;
14268;SDS011;7218;51.480;7.006;2023-05-15T04:50:52;39.53;;;29.30;;
14268;SDS011;7218;51.480;7.006;2023-05-15T04:53:18;35.20;;;28.27;;
14268;SDS011;7218;51.480;7.006;2023-05-15T04:55:45;36.22;;;26.95;;
14268;SDS011;7218;51.480;7.006;2023-05-15T04:58:11;34.45;;;28.15;;
14268;SDS011;7218;51.480;7.006;2023-05-15T05:00:38;37.67;;;28.73;;
14268;SDS011;7218;51.480;7.006;2023-05-15T05:03:04;39.63;;;29.02;;
14268;SDS011;7218;51.480;7.006;2023-05-15T05:05:32;37.80;;;29.23;;
14268;SDS011;7218;51.480;7.006;2023-05-15T05:07:58;39.47;;;29.65;;
14268;SDS011;7218;51.480;7.006;2023-05-15T05:10:25;38.50;;;29.15;;
14268;SDS011;7218;51.480;7.006;2023-05-15T05:12:51;37.33;;;29.60;;
14268;SDS011;7218;51.480;7.006;2023-05-15T05:15:18;44.00;;;31.67;;
14268;SDS011;7218;51.480;7.006;2023-05-15T05:17:45;42.65;;;31.20;;
14268;SDS011;7218;51.480;7.006;2023-05-15T05:20:11;40.72;;;30.65;;
14268;SDS011;7218;51.480;7.006;2023-05-15T05:22:39;39.92;;;32.05;;
14268;SDS011;7218;51.480;7.006;2023-05-15T05:25:06;40.47;;;31.30;;
14268;SDS011;7218;51.480;7.006;2023-05-15T05:27:33;45.45;;;32.70;;
14268;SDS011;7218;51.480;7.006;2023-05-15T05:30:00;68.40;;;41.70;;
14268;SDS011;7218;51.480;7.006;2023-05-15T05:32:27;76.57;;;42.88;;
14268;SDS011;7218;51.480;7.006;2023-05-15T05:34:53;83.07;;;45.30;;
14268;SDS011;7218;51.480;7.006;2023-05-15T05:37:20;77.68;;;44.28;;
14268;SDS011;7218;51.480;7.006;2023-05-15T05:39:48;75.72;;;44.00;;
14268;SDS011;7218;51.480;7.006;2023-05-15T05:42:14;70.95;;;42.20;;
14268;SDS011;7218;51.480;7.006;2023-05-15T05:44:41;65.70;;;40.65;;
14268;SDS011;7218;51.480;7.006;2023-05-15T05:47:07;75.15;;;45.47;;
14268;SDS011;7218;51.480;7.006;2023-05-15T05:49:34;74.05;;;45.35;;
14268;SDS011;7218;51.480;7.006;2023-05-15T05:52:04;80.93;;;45.28;;
14268;SDS011;7218;51.480;7.006;2023-05-15T05:54:32;84.57;;;46.10;;
14268;SDS011;7218;51.480;7.006;2023-05-15T05:56:59;90.60;;;45.53;;
14268;SDS011;7218;51.480;7.006;2023-05-15T05:59:26;80.85;;;43.58;;
14268;SDS011;7218;51.480;7.006;2023-05-15T06:01:53;71.13;;;42.92;;
14268;SDS011;7218;51.480;7.006;2023-05-15T06:04:19;72.43;;;44.35;;
14268;SDS011;7218;51.480;7.006;2023-05-15T06:06:46;67.28;;;42.30;;
14268;SDS011;7218;51.480;7.006;2023-05-15T06:09:14;65.32;;;40.80;;
14268;SDS011;7218;51.480;7.006;2023-05-15T06:11:40;64.75;;;40.17;;
14268;SDS011;7218;51.480;7.006;2023-05-15T06:14:08;58.30;;;39.00;;
14268;SDS011;7218;51.480;7.006;2023-05-15T06:16:34;55.83;;;37.50;;
14268;SDS011;7218;51.480;7.006;2023-05-15T06:19:01;56.92;;;38.53;;
14268;SDS011;7218;51.480;7.006;2023-05-15T06:21:27;58.92;;;37.45;;
14268;SDS011;7218;51.480;7.006;2023-05-15T06:23:54;55.42;;;36.17;;
14268;SDS011;7218;51.480;7.006;2023-05-15T06:26:20;56.90;;;36.67;;
14268;SDS011;7218;51.480;7.006;2023-05-15T06:28:47;66.10;;;42.92;;
14268;SDS011;7218;51.480;7.006;2023-05-15T06:31:15;68.63;;;42.72;;
14268;SDS011;7218;51.480;7.006;2023-05-15T06:33:42;65.88;;;43.17;;
14268;SDS011;7218;51.480;7.006;2023-05-15T06:36:08;63.85;;;42.60;;
14268;SDS011;7218;51.480;7.006;2023-05-15T06:38:35;58.72;;;40.60;;
14268;SDS011;7218;51.480;7.006;2023-05-15T06:41:01;66.15;;;41.00;;
14268;SDS011;7218;51.480;7.006;2023-05-15T06:43:28;60.58;;;40.90;;
14268;SDS011;7218;51.480;7.006;2023-05-15T06:45:54;54.70;;;38.35;;
14268;SDS011;7218;51.480;7.006;2023-05-15T06:48:22;43.25;;;31.73;;
14268;SDS011;7218;51.480;7.006;2023-05-15T06:50:48;36.92;;;28.13;;
14268;SDS011;7218;51.480;7.006;2023-05-15T06:53:15;31.15;;;26.52;;
14268;SDS011;7218;51.480;7.006;2023-05-15T06:55:42;33.78;;;25.85;;
14268;SDS011;7218;51.480;7.006;2023-05-15T06:58:09;35.00;;;26.98;;
14268;SDS011;7218;51.480;7.006;2023-05-15T07:00:35;36.83;;;27.90;;
14268;SDS011;7218;51.480;7.006;2023-05-15T07:03:02;38.75;;;29.17;;
14268;SDS011;7218;51.480;7.006;2023-05-15T07:05:30;39.83;;;30.52;;
14268;SDS011;7218;51.480;7.006;2023-05-15T07:07:56;38.80;;;30.05;;
14268;SDS011;7218;51.480;7.006;2023-05-15T07:10:22;35.40;;;27.92;;
14268;SDS011;7218;51.480;7.006;2023-05-15T07:12:49;32.35;;;25.50;;
14268;SDS011;7218;51.480;7.006;2023-05-15T07:15:15;29.00;;;23.00;;
14268;SDS011;7218;51.480;7.006;2023-05-15T07:17:42;26.42;;;20.58;;
14268;SDS011;7218;51.480;7.006;2023-05-15T07:20:09;23.45;;;18.50;;
14268;SDS011;7218;51.480;7.006;2023-05-15T07:22:37;24.65;;;18.45;;
14268;SDS011;7218;51.480;7.006;2023-05-15T07:25:04;21.98;;;17.83;;
14268;SDS011;7218;51.480;7.006;2023-05-15T07:27:31;19.48;;;16.65;;
14268;SDS011;7218;51.480;7.006;2023-05-15T07:29:58;19.60;;;15.70;;
14268;SDS011;7218;51.480;7.006;2023-05-15T07:32:24;19.13;;;15.55;;
14268;SDS011;7218;51.480;7.006;2023-05-15T07:34:51;18.23;;;15.27;;
14268;SDS011;7218;51.480;7.006;2023-05-15T07:37:17;20.83;;;16.27;;
14268;SDS011;7218;51.480;7.006;2023-05-15T07:39:45;17.70;;;15.75;;
14268;SDS011;7218;51.480;7.006;2023-05-15T07:42:11;20.08;;;15.43;;
14268;SDS011;7218;51.480;7.006;2023-05-15T07:44:38;16.67;;;14.88;;
14268;SDS011;7218;51.480;7.006;2023-05-15T07:47:04;17.08;;;14.82;;
14268;SDS011;7218;51.480;7.006;2023-05-15T07:49:31;17.10;;;15.30;;
14268;SDS011;7218;51.480;7.006;2023-05-15T07:51:57;19.15;;;14.63;;
14268;SDS011;7218;51.480;7.006;2023-05-15T07:54:24;15.98;;;14.27;;
14268;SDS011;7218;51.480;7.006;2023-05-15T07:56:52;17.00;;;14.05;;
14268;SDS011;7218;51.480;7.006;2023-05-15T07:59:18;19.55;;;15.00;;
14268;SDS011;7218;51.480;7.006;2023-05-15T08:01:45;21.02;;;14.93;;
14268;SDS011;7218;51.480;7.006;2023-05-15T08:04:11;17.08;;;13.82;;
14268;SDS011;7218;51.480;7.006;2023-05-15T08:06:38;19.52;;;15.20;;
14268;SDS011;7218;51.480;7.006;2023-05-15T08:09:06;19.58;;;15.13;;
14268;SDS011;7218;51.480;7.006;2023-05-15T08:11:33;20.35;;;15.98;;
14268;SDS011;7218;51.480;7.006;2023-05-15T08:14:01;17.95;;;14.15;;
14268;SDS011;7218;51.480;7.006;2023-05-15T08:16:28;18.33;;;14.95;;
14268;SDS011;7218;51.480;7.006;2023-05-15T08:18:54;22.08;;;15.48;;
14268;SDS011;7218;51.480;7.006;2023-05-15T08:21:25;22.25;;;15.30;;
14268;SDS011;7218;51.480;7.006;2023-05-15T08:23:51;16.90;;;15.18;;
14268;SDS011;7218;51.480;7.006;2023-05-15T08:26:18;17.70;;;15.30;;
14268;SDS011;7218;51.480;7.006;2023-05-15T08:28:45;19.55;;;15.23;;
14268;SDS011;7218;51.480;7.006;2023-05-15T08:31:12;16.85;;;15.05;;
14268;SDS011;7218;51.480;7.006;2023-05-15T08:33:39;20.67;;;15.73;;
14268;SDS011;7218;51.480;7.006;2023-05-15T08:36:06;18.40;;;15.68;;
14268;SDS011;7218;51.480;7.006;2023-05-15T08:38:33;18.52;;;16.48;;
14268;SDS011;7218;51.480;7.006;2023-05-15T08:41:01;18.95;;;15.63;;
14268;SDS011;7218;51.480;7.006;2023-05-15T08:43:32;20.98;;;15.75;;
14268;SDS011;7218;51.480;7.006;2023-05-15T08:46:03;20.17;;;15.70;;
14268;SDS011;7218;51.480;7.006;2023-05-15T08:48:32;18.10;;;15.57;;
14268;SDS011;7218;51.480;7.006;2023-05-15T08:51:02;18.60;;;15.93;;
14268;SDS011;7218;51.480;7.006;2023-05-15T08:53:29;18.23;;;15.50;;
14268;SDS011;7218;51.480;7.006;2023-05-15T08:55:56;18.58;;;15.30;;
14268;SDS011;7218;51.480;7.006;2023-05-15T08:58:22;19.92;;;16.50;;
14268;SDS011;7218;51.480;7.006;2023-05-15T09:00:52;19.52;;;15.70;;
14268;SDS011;7218;51.480;7.006;2023-05-15T09:03:19;19.88;;;14.45;;
14268;SDS011;7218;51.480;7.006;2023-05-15T09:05:48;18.80;;;14.43;;
14268;SDS011;7218;51.480;7.006;2023-05-15T09:08:17;16.92;;;15.05;;
14268;SDS011;7218;51.480;7.006;2023-05-15T09:10:47;17.25;;;14.27;;
14268;SDS011;7218;51.480;7.006;2023-05-15T09:13:14;18.65;;;15.05;;
14268;SDS011;7218;51.480;7.006;2023-05-15T09:15:41;17.40;;;13.50;;
14268;SDS011;7218;51.480;7.006;2023-05-15T09:18:07;16.20;;;13.85;;
14268;SDS011;7218;51.480;7.006;2023-05-15T09:20:35;18.80;;;12.63;;
14268;SDS011;7218;51.480;7.006;2023-05-15T09:23:04;17.13;;;13.05;;
14268;SDS011;7218;51.480;7.006;2023-05-15T09:25:46;14.45;;;12.60;;
14268;SDS011;7218;51.480;7.006;2023-05-15T09:28:23;13.68;;;12.05;;
14268;SDS011;7218;51.480;7.006;2023-05-15T09:30:55;15.05;;;11.80;;
14268;SDS011;7218;51.480;7.006;2023-05-15T09:33:26;13.27;;;11.88;;
14268;SDS011;7218;51.480;7.006;2023-05-15T09:35:53;14.45;;;12.75;;
14268;SDS011;7218;51.480;7.006;2023-05-15T09:38:21;13.65;;;12.27;;
14268;SDS011;7218;51.480;7.006;2023-05-15T09:40:47;12.60;;;11.00;;
14268;SDS011;7218;51.480;7.006;2023-05-15T09:43:14;13.43;;;10.80;;
14268;SDS011;7218;51.480;7.006;2023-05-15T09:45:41;14.10;;;11.27;;
14268;SDS011;7218;51.480;7.006;2023-05-15T09:48:07;15.90;;;12.15;;
14268;SDS011;7218;51.480;7.006;2023-05-15T09:50:36;14.73;;;11.60;;
14268;SDS011;7218;51.480;7.006;2023-05-15T09:53:03;14.63;;;11.88;;
14268;SDS011;7218;51.480;7.006;2023-05-15T09:55:32;11.95;;;10.73;;
14268;SDS011;7218;51.480;7.006;2023-05-15T09:58:03;12.50;;;10.90;;
14268;SDS011;7218;51.480;7.006;2023-05-15T10:00:31;9.85;;;8.48;;
14268;SDS011;7218;51.480;7.006;2023-05-15T10:02:59;11.13;;;8.13;;
14268;SDS011;7218;51.480;7.006;2023-05-15T10:05:27;8.52;;;7.13;;
14268;SDS011;7218;51.480;7.006;2023-05-15T10:07:54;8.73;;;7.43;;
14268;SDS011;7218;51.480;7.006;2023-05-15T10:10:22;8.50;;;7.28;;
14268;SDS011;7218;51.480;7.006;2023-05-15T10:12:50;10.43;;;7.47;;
14268;SDS011;7218;51.480;7.006;2023-05-15T10:15:17;10.25;;;7.75;;
14268;SDS011;7218;51.480;7.006;2023-05-15T10:17:45;9.23;;;8.32;;
14268;SDS011;7218;51.480;7.006;2023-05-15T10:20:13;9.60;;;8.60;;
14268;SDS011;7218;51.480;7.006;2023-05-15T10:22:41;8.55;;;7.75;;
14268;SDS011;7218;51.480;7.006;2023-05-15T10:25:12;8.88;;;7.80;;
14268;SDS011;7218;51.480;7.006;2023-05-15T10:27:42;10.20;;;7.65;;
14268;SDS011;7218;51.480;7.006;2023-05-15T10:30:10;11.70;;;8.25;;
14268;SDS011;7218;51.480;7.006;2023-05-15T10:32:38;10.30;;;8.00;;
14268;SDS011;7218;51.480;7.006;2023-05-15T10:35:06;11.80;;;8.57;;
14268;SDS011;7218;51.480;7.006;2023-05-15T10:37:34;11.50;;;8.57;;
14268;SDS011;7218;51.480;7.006;2023-05-15T10:40:01;12.35;;;8.30;;
14268;SDS011;7218;51.480;7.006;2023-05-15T10:42:31;13.05;;;8.80;;
14268;SDS011;7218;51.480;7.006;2023-05-15T10:44:59;9.77;;;7.78;;
14268;SDS011;7218;51.480;7.006;2023-05-15T10:47:28;9.23;;;8.32;;
14268;SDS011;7218;51.480;7.006;2023-05-15T10:49:55;9.07;;;8.05;;
14268;SDS011;7218;51.480;7.006;2023-05-15T10:52:22;10.20;;;8.45;;
14268;SDS011;7218;51.480;7.006;2023-05-15T10:54:49;10.30;;;8.15;;
14268;SDS011;7218;51.480;7.006;2023-05-15T10:57:19;10.60;;;7.00;;
14268;SDS011;7218;51.480;7.006;2023-05-15T10:59:46;10.10;;;7.95;;
14268;SDS011;7218;51.480;7.006;2023-05-15T11:02:19;10.07;;;8.40;;
14268;SDS011;7218;51.480;7.006;2023-05-15T11:04:51;8.45;;;7.63;;
14268;SDS011;7218;51.480;7.006;2023-05-15T11:07:19;11.57;;;7.85;;
14268;SDS011;7218;51.480;7.006;2023-05-15T11:09:46;9.98;;;7.40;;
14268;SDS011;7218;51.480;7.006;2023-05-15T11:12:12;7.95;;;6.68;;
14268;SDS011;7218;51.480;7.006;2023-05-15T11:14:39;8.68;;;7.07;;
14268;SDS011;7218;51.480;7.006;2023-05-15T11:17:07;9.07;;;6.88;;
14268;SDS011;7218;51.480;7.006;2023-05-15T11:19:36;8.23;;;6.60;;
14268;SDS011;7218;51.480;7.006;2023-05-15T11:22:18;7.35;;;6.47;;
14268;SDS011;7218;51.480;7.006;2023-05-15T11:24:46;9.35;;;6.50;;
14268;SDS011;7218;51.480;7.006;2023-05-15T11:27:15;11.65;;;6.88;;
14268;SDS011;7218;51.480;7.006;2023-05-15T11:30:02;8.82;;;6.35;;
14268;SDS011;7218;51.480;7.006;2023-05-15T11:32:42;10.05;;;6.32;;
14268;SDS011;7218;51.480;7.006;2023-05-15T11:35:10;8.52;;;5.65;;
14268;SDS011;7218;51.480;7.006;2023-05-15T11:37:38;5.20;;;4.40;;
14268;SDS011;7218;51.480;7.006;2023-05-15T11:40:08;8.20;;;4.45;;
14268;SDS011;7218;51.480;7.006;2023-05-15T11:42:38;5.72;;;4.07;;
14268;SDS011;7218;51.480;7.006;2023-05-15T11:45:06;8.70;;;5.00;;
14268;SDS011;7218;51.480;7.006;2023-05-15T11:47:34;5.93;;;4.63;;
14268;SDS011;7218;51.480;7.006;2023-05-15T11:50:02;8.68;;;5.15;;
14268;SDS011;7218;51.480;7.006;2023-05-15T11:52:30;4.90;;;4.40;;
14268;SDS011;7218;51.480;7.006;2023-05-15T11:54:58;4.50;;;4.10;;
14268;SDS011;7218;51.480;7.006;2023-05-15T11:57:25;6.65;;;3.67;;
14268;SDS011;7218;51.480;7.006;2023-05-15T11:59:52;6.82;;;4.30;;
14268;SDS011;7218;51.480;7.006;2023-05-15T12:02:19;5.43;;;4.05;;
14268;SDS011;7218;51.480;7.006;2023-05-15T12:04:47;7.57;;;4.20;;
14268;SDS011;7218;51.480;7.006;2023-05-15T12:07:14;6.45;;;4.50;;
14268;SDS011;7218;51.480;7.006;2023-05-15T12:09:41;5.78;;;4.65;;
14268;SDS011;7218;51.480;7.006;2023-05-15T12:12:12;5.15;;;4.15;;
14268;SDS011;7218;51.480;7.006;2023-05-15T12:14:39;4.07;;;3.65;;
14268;SDS011;7218;51.480;7.006;2023-05-15T12:17:05;5.28;;;3.90;;
14268;SDS011;7218;51.480;7.006;2023-05-15T12:19:32;6.40;;;4.05;;
14268;SDS011;7218;51.480;7.006;2023-05-15T12:21:59;8.35;;;3.47;;
14268;SDS011;7218;51.480;7.006;2023-05-15T12:24:26;4.50;;;3.58;;
14268;SDS011;7218;51.480;7.006;2023-05-15T12:26:52;3.50;;;3.20;;
14268;SDS011;7218;51.480;7.006;2023-05-15T12:29:20;7.97;;;3.40;;
14268;SDS011;7218;51.480;7.006;2023-05-15T12:31:47;4.95;;;3.22;;
14268;SDS011;7218;51.480;7.006;2023-05-15T12:34:17;4.57;;;3.60;;
14268;SDS011;7218;51.480;7.006;2023-05-15T12:36:44;6.13;;;3.47;;
14268;SDS011;7218;51.480;7.006;2023-05-15T12:39:10;5.57;;;3.40;;
14268;SDS011;7218;51.480;7.006;2023-05-15T12:41:37;5.50;;;3.33;;
14268;SDS011;7218;51.480;7.006;2023-05-15T12:44:04;4.50;;;3.65;;
14268;SDS011;7218;51.480;7.006;2023-05-15T12:46:32;8.15;;;5.07;;
14268;SDS011;7218;51.480;7.006;2023-05-15T12:48:58;6.93;;;4.35;;
14268;SDS011;7218;51.480;7.006;2023-05-15T12:51:25;6.05;;;4.40;;
14268;SDS011;7218;51.480;7.006;2023-05-15T12:53:53;7.05;;;4.60;;
14268;SDS011;7218;51.480;7.006;2023-05-15T12:56:22;6.78;;;4.40;;
14268;SDS011;7218;51.480;7.006;2023-05-15T12:58:48;4.60;;;3.92;;
14268;SDS011;7218;51.480;7.006;2023-05-15T13:01:15;7.05;;;3.60;;
14268;SDS011;7218;51.480;7.006;2023-05-15T13:03:43;4.57;;;3.47;;
14268;SDS011;7218;51.480;7.006;2023-05-15T13:06:09;6.63;;;4.32;;
14268;SDS011;7218;51.480;7.006;2023-05-15T13:08:38;5.97;;;4.53;;
14268;SDS011;7218;51.480;7.006;2023-05-15T13:11:09;7.30;;;5.57;;
14268;SDS011;7218;51.480;7.006;2023-05-15T13:13:43;6.95;;;5.60;;
14268;SDS011;7218;51.480;7.006;2023-05-15T13:16:17;8.15;;;5.15;;
14268;SDS011;7218;51.480;7.006;2023-05-15T13:18:46;7.88;;;6.30;;
14268;SDS011;7218;51.480;7.006;2023-05-15T13:21:12;13.77;;;7.80;;
14268;SDS011;7218;51.480;7.006;2023-05-15T13:23:39;9.25;;;6.45;;
14268;SDS011;7218;51.480;7.006;2023-05-15T13:26:05;8.75;;;6.10;;
14268;SDS011;7218;51.480;7.006;2023-05-15T13:28:32;8.05;;;6.45;;
14268;SDS011;7218;51.480;7.006;2023-05-15T13:30:59;8.32;;;7.40;;
14268;SDS011;7218;51.480;7.006;2023-05-15T13:33:25;10.55;;;7.90;;
14268;SDS011;7218;51.480;7.006;2023-05-15T13:35:54;10.40;;;8.07;;
14268;SDS011;7218;51.480;7.006;2023-05-15T13:38:21;12.55;;;8.38;;
14268;SDS011;7218;51.480;7.006;2023-05-15T13:40:48;12.13;;;10.50;;
14268;SDS011;7218;51.480;7.006;2023-05-15T13:43:14;12.88;;;9.32;;
14268;SDS011;7218;51.480;7.006;2023-05-15T13:45:41;14.38;;;12.23;;
14268;SDS011;7218;51.480;7.006;2023-05-15T13:48:07;14.70;;;12.30;;
14268;SDS011;7218;51.480;7.006;2023-05-15T13:50:34;16.95;;;14.63;;
14268;SDS011;7218;51.480;7.006;2023-05-15T13:53:02;14.52;;;13.02;;
14268;SDS011;7218;51.480;7.006;2023-05-15T13:55:28;16.20;;;12.73;;
14268;SDS011;7218;51.480;7.006;2023-05-15T13:57:55;13.27;;;11.88;;
14268;SDS011;7218;51.480;7.006;2023-05-15T14:00:21;15.27;;;11.45;;
14268;SDS011;7218;51.480;7.006;2023-05-15T14:02:48;16.25;;;12.05;;
14268;SDS011;7218;51.480;7.006;2023-05-15T14:05:15;12.13;;;10.88;;
14268;SDS011;7218;51.480;7.006;2023-05-15T14:07:42;11.80;;;9.95;;
14268;SDS011;7218;51.480;7.006;2023-05-15T14:10:10;14.40;;;8.95;;
14268;SDS011;7218;51.480;7.006;2023-05-15T14:12:37;11.35;;;9.25;;
14268;SDS011;7218;51.480;7.006;2023-05-15T14:15:03;12.93;;;10.77;;
14268;SDS011;7218;51.480;7.006;2023-05-15T14:17:31;11.05;;;9.82;;
14268;SDS011;7218;51.480;7.006;2023-05-15T14:19:57;12.57;;;9.20;;
14268;SDS011;7218;51.480;7.006;2023-05-15T14:22:23;10.23;;;9.10;;
14268;SDS011;7218;51.480;7.006;2023-05-15T14:24:50;11.38;;;7.82;;
14268;SDS011;7218;51.480;7.006;2023-05-15T14:27:18;8.77;;;7.20;;
14268;SDS011;7218;51.480;7.006;2023-05-15T14:29:45;8.43;;;7.53;;
14268;SDS011;7218;51.480;7.006;2023-05-15T14:32:12;6.32;;;5.28;;
14268;SDS011;7218;51.480;7.006;2023-05-15T14:34:39;8.18;;;5.90;;
14268;SDS011;7218;51.480;7.006;2023-05-15T14:37:06;6.50;;;5.80;;
14268;SDS011;7218;51.480;7.006;2023-05-15T14:39:32;6.35;;;5.55;;
14268;SDS011;7218;51.480;7.006;2023-05-15T14:41:59;7.45;;;6.65;;
14268;SDS011;7218;51.480;7.006;2023-05-15T14:44:26;11.48;;;8.23;;